X  Kiinni Metar Aviation säätiedot     LGTS Thessaloniki Macedonia International Airport
Lämpötila
25°C Lämpötila
17°C Kastepiste
61% Kosteus



Tuuli
8 KM/T
5 MPH
2 M/S
4 KTS



100°
I
Nykyiset olosuhteet

Puolipilvistä Puolipilvistä
Paine 1006.77 (hPa) - 29.73 (inHg)
Näkyvyys 6 (maili) - 9.7 (km)
Lentokenttä
Lentokentän koodi LGTS

Sijainti: Thessaloniki Macedonia International Airport
Etäisyys: 85 (km)

Metar:
LGTS 140420Z 10004KT 9999 FEW025 25/17 Q1007 NOSIG

Aika: 14-06-2024 07:20 EEST